Broadview, New Mexico
Current Conditions -  °F | °C
As of 6:35 AM on Friday 28 Nov 2014 (Local Time) from KCVN Reporting Station
Clear Clear  
Wind Chill: 31°   Ceiling: Unl
Heat Index: 39°   Visibility: 10mi
Dew Point: 25°   Wind: 14mph
Humidity: 56%   Direction: 270°W
Pressure: 30.12"   Gusts: NA
Location:  34.82°N, 103.22°W
Report Text: KCVN 281335Z 27012KT 10SM CLR 04/M04 A3012 RMK AO1
Loading
Personal Weather Stations






























Interactive Weather Map New forecast layout! Learn more

10-Day Weather Forecast

Advertisements
Track Severe Weather on mobile